createdAt,value
2018-06-16T00:00:15.692Z,10.13
2018-06-16T00:02:46.851Z,10.00
2018-06-16T00:05:18.731Z,10.50
2018-06-16T00:07:49.888Z,11.30
2018-06-16T00:10:21.011Z,9.50
2018-06-16T00:12:52.014Z,10.10
2018-06-16T00:15:23.393Z,9.37
2018-06-16T00:17:54.310Z,9.80
2018-06-16T00:20:25.168Z,8.83
2018-06-16T00:22:56.237Z,8.63
2018-06-16T00:25:27.322Z,8.80
2018-06-16T00:27:58.252Z,8.17
2018-06-16T00:30:30.558Z,7.53
2018-06-16T00:33:01.809Z,8.60
2018-06-16T00:35:32.947Z,7.80
2018-06-16T00:38:03.868Z,7.77
2018-06-16T00:40:35.694Z,7.50
2018-06-16T00:43:07.496Z,7.13
2018-06-16T00:45:38.870Z,7.17
2018-06-16T00:48:10.045Z,7.60
2018-06-16T00:50:41.070Z,6.93
2018-06-16T00:53:12.237Z,7.67
2018-06-16T00:55:43.458Z,6.43
2018-06-16T00:58:14.689Z,8.23
2018-06-16T01:00:46.888Z,7.30
2018-06-16T01:03:17.946Z,8.73
2018-06-16T01:05:50.068Z,7.93
2018-06-16T01:08:21.271Z,8.10
2018-06-16T01:10:52.459Z,8.13
2018-06-16T01:13:23.582Z,7.97
2018-06-16T01:15:54.603Z,7.07
2018-06-16T01:18:25.938Z,6.93
2018-06-16T01:20:57.374Z,8.10
2018-06-16T01:23:28.476Z,8.50
2018-06-16T01:25:59.372Z,8.33
2018-06-16T01:28:30.111Z,7.13
2018-06-16T01:31:01.318Z,7.17
2018-06-16T01:33:33.422Z,6.87
2018-06-16T01:36:04.471Z,6.43
2018-06-16T01:38:35.678Z,7.10
2018-06-16T01:41:06.598Z,6.63
2018-06-16T01:43:37.648Z,7.07
2018-06-16T01:46:08.750Z,6.47
2018-06-16T01:48:39.823Z,7.03
2018-06-16T01:51:11.121Z,6.40
2018-06-16T01:53:42.223Z,6.80
2018-06-16T01:56:14.319Z,6.50
2018-06-16T01:58:46.211Z,7.27
2018-06-16T02:01:18.318Z,6.83
2018-06-16T02:03:49.278Z,6.93
2018-06-16T02:06:21.403Z,7.30
2018-06-16T02:08:52.561Z,7.00
2018-06-16T02:11:23.848Z,7.03
2018-06-16T02:13:55.165Z,7.40
2018-06-16T02:16:26.149Z,7.00
2018-06-16T02:18:57.117Z,7.27
2018-06-16T02:21:28.054Z,7.33
2018-06-16T02:23:59.123Z,6.60
2018-06-16T02:26:30.382Z,7.03
2018-06-16T02:29:01.531Z,7.03
2018-06-16T02:31:34.564Z,6.90
2018-06-16T02:34:05.552Z,6.20
2018-06-16T02:36:36.712Z,6.40
2018-06-16T02:39:09.830Z,6.10
2018-06-16T02:41:40.997Z,6.67
2018-06-16T02:44:12.422Z,7.00
2018-06-16T02:46:43.996Z,5.77
2018-06-16T02:49:15.009Z,6.90
2018-06-16T02:51:46.283Z,5.77
2018-06-16T02:54:17.248Z,7.30
2018-06-16T02:56:49.255Z,7.43
2018-06-16T02:59:20.598Z,13.03
2018-06-16T03:01:51.765Z,11.97
2018-06-16T03:04:23.841Z,10.00
2018-06-16T03:06:55.537Z,8.00
2018-06-16T03:09:26.583Z,10.33
2018-06-16T03:11:58.548Z,6.90
2018-06-16T03:14:29.752Z,7.70
2018-06-16T03:17:00.667Z,6.23
2018-06-16T03:19:32.414Z,7.43
2018-06-16T03:22:03.565Z,7.00
2018-06-16T03:24:34.774Z,6.97
2018-06-16T03:27:06.745Z,7.43
2018-06-16T03:29:37.755Z,9.67
2018-06-16T03:32:08.773Z,9.47
2018-06-16T03:34:39.896Z,10.23
2018-06-16T03:37:11.673Z,10.23
2018-06-16T03:39:42.749Z,12.53
2018-06-16T03:42:15.167Z,10.03
2018-06-16T03:44:46.343Z,9.83
2018-06-16T03:47:17.340Z,8.90
2018-06-16T03:49:48.397Z,7.50
2018-06-16T03:52:19.856Z,8.30
2018-06-16T03:54:50.972Z,6.77
2018-06-16T03:57:23.678Z,8.37
2018-06-16T03:59:54.792Z,7.20
2018-06-16T04:02:26.571Z,7.30
2018-06-16T04:04:57.672Z,8.73
2018-06-16T04:07:28.849Z,7.03
2018-06-16T04:10:00.952Z,8.00
2018-06-16T04:12:33.785Z,8.30
2018-06-16T04:15:04.759Z,7.70
2018-06-16T04:17:35.846Z,7.07
2018-06-16T04:20:07.152Z,7.87
2018-06-16T04:22:38.170Z,7.80
2018-06-16T04:25:09.649Z,8.10
2018-06-16T04:27:41.721Z,7.90
2018-06-16T04:30:12.820Z,7.97
2018-06-16T04:32:43.733Z,8.00
2018-06-16T04:35:15.035Z,7.23
2018-06-16T04:37:46.190Z,7.70
2018-06-16T04:40:17.243Z,7.40
2018-06-16T04:42:48.279Z,7.40
2018-06-16T04:45:19.307Z,8.40
2018-06-16T04:47:50.300Z,8.43
2018-06-16T04:50:20.905Z,8.20
2018-06-16T04:52:52.455Z,7.87
2018-06-16T04:55:23.638Z,8.07
2018-06-16T04:57:54.940Z,7.27
2018-06-16T05:00:26.354Z,8.00
2018-06-16T05:02:57.409Z,6.97
2018-06-16T05:05:28.567Z,7.73
2018-06-16T05:07:59.577Z,6.90
2018-06-16T05:10:30.695Z,8.03
2018-06-16T05:13:01.730Z,7.70
2018-06-16T05:15:32.898Z,7.90
2018-06-16T05:18:05.327Z,7.53
2018-06-16T05:20:36.366Z,7.80
2018-06-16T05:23:08.313Z,8.77
2018-06-16T05:25:39.798Z,8.00
2018-06-16T05:28:11.052Z,7.63
2018-06-16T05:30:43.230Z,8.13
2018-06-16T05:33:14.607Z,9.70
2018-06-16T05:35:45.773Z,8.90
2018-06-16T05:38:17.856Z,8.07
2018-06-16T05:40:48.972Z,8.90
2018-06-16T05:43:20.621Z,9.57
2018-06-16T05:45:51.730Z,8.23
2018-06-16T05:48:23.115Z,8.20
2018-06-16T05:50:54.386Z,8.97
2018-06-16T05:53:25.269Z,9.20
2018-06-16T05:55:56.488Z,7.87
2018-06-16T05:58:27.508Z,8.73
2018-06-16T06:00:58.479Z,7.70
2018-06-16T06:03:30.385Z,7.97
2018-06-16T06:06:01.617Z,7.47
2018-06-16T06:08:32.906Z,8.10
2018-06-16T06:11:04.630Z,7.20
2018-06-16T06:13:36.442Z,7.63
2018-06-16T06:16:07.713Z,7.73
2018-06-16T06:18:39.191Z,7.60
2018-06-16T06:21:10.991Z,7.60
2018-06-16T06:23:42.302Z,8.33
2018-06-16T06:26:13.505Z,8.10
2018-06-16T06:28:45.460Z,8.07
2018-06-16T06:31:16.581Z,8.50
2018-06-16T06:33:47.779Z,8.63
2018-06-16T06:36:18.654Z,7.60
2018-06-16T06:38:49.900Z,7.67
2018-06-16T06:41:21.768Z,7.80
2018-06-16T06:43:53.311Z,9.50
2018-06-16T06:46:26.144Z,10.70
2018-06-16T06:48:57.205Z,9.03
2018-06-16T06:51:29.418Z,10.07
2018-06-16T06:54:00.864Z,9.53
2018-06-16T06:56:32.562Z,9.90
2018-06-16T06:59:03.896Z,9.05
2018-06-16T07:01:35.154Z,9.23
2018-06-16T07:04:07.202Z,9.20
2018-06-16T07:06:38.541Z,9.35
2018-06-16T07:09:11.392Z,9.10
2018-06-16T07:11:42.860Z,9.45
2018-06-16T07:14:14.579Z,10.15
2018-06-16T07:16:46.369Z,10.28
2018-06-16T07:19:18.036Z,9.70
2018-06-16T07:21:49.138Z,9.90
2018-06-16T07:24:21.085Z,9.33
2018-06-16T07:26:52.156Z,9.83
2018-06-16T07:29:22.825Z,9.63
2018-06-16T07:31:53.437Z,9.73
2018-06-16T07:34:24.084Z,10.28
2018-06-16T07:36:54.714Z,10.03
2018-06-16T07:39:25.819Z,9.90
2018-06-16T07:41:56.954Z,9.83
2018-06-16T07:44:28.732Z,9.48
2018-06-16T07:46:59.867Z,10.10
2018-06-16T07:49:32.044Z,8.47
2018-06-16T07:52:02.939Z,10.08
2018-06-16T07:54:34.052Z,10.10
2018-06-16T07:57:05.111Z,9.08
2018-06-16T07:59:39.604Z,9.33
2018-06-16T08:02:10.584Z,9.90
2018-06-16T08:04:41.883Z,9.88
2018-06-16T08:07:13.246Z,10.48
2018-06-16T08:09:44.571Z,9.37
2018-06-16T08:12:15.644Z,11.70
2018-06-16T08:14:46.799Z,11.30
2018-06-16T08:17:17.913Z,12.17
2018-06-16T08:19:48.765Z,12.20
2018-06-16T08:22:20.072Z,12.77
2018-06-16T08:24:51.834Z,13.53
2018-06-16T08:27:23.181Z,11.90
2018-06-16T08:29:54.221Z,12.30
2018-06-16T08:32:25.130Z,12.53
2018-06-16T08:34:56.346Z,13.17
2018-06-16T08:37:27.336Z,12.90
2018-06-16T08:39:58.709Z,13.20
2018-06-16T08:42:29.841Z,13.40
2018-06-16T08:45:01.114Z,12.33
2018-06-16T08:47:33.380Z,12.27
2018-06-16T08:50:04.938Z,14.13
2018-06-16T08:52:36.078Z,12.53
2018-06-16T08:55:07.643Z,13.90
2018-06-16T08:57:38.733Z,14.10
2018-06-16T09:00:11.014Z,13.30
2018-06-16T09:02:42.789Z,12.80
2018-06-16T09:05:13.801Z,15.37
2018-06-16T09:07:44.757Z,14.20
2018-06-16T09:10:15.888Z,14.03
2018-06-16T09:12:46.850Z,15.90
2018-06-16T09:15:18.221Z,13.70
2018-06-16T09:17:49.458Z,12.63
2018-06-16T09:20:20.826Z,12.60
2018-06-16T09:22:52.242Z,12.80
2018-06-16T09:25:23.445Z,12.43
2018-06-16T09:27:54.658Z,12.27
2018-06-16T09:30:25.886Z,13.37
2018-06-16T09:32:57.143Z,11.60
2018-06-16T09:35:28.406Z,12.10
2018-06-16T09:37:59.712Z,12.10
2018-06-16T09:40:30.826Z,12.43
2018-06-16T09:43:01.961Z,11.97
2018-06-16T09:45:32.897Z,11.20
2018-06-16T09:48:04.804Z,12.13
2018-06-16T09:50:35.911Z,12.93
2018-06-16T09:53:08.016Z,12.83
2018-06-16T09:55:40.426Z,13.97
2018-06-16T09:58:11.626Z,13.20
2018-06-16T10:00:43.046Z,12.40
2018-06-16T10:03:14.331Z,12.90
2018-06-16T10:05:45.645Z,12.10
2018-06-16T10:08:16.947Z,11.90
2018-06-16T10:10:48.164Z,12.20
2018-06-16T10:13:19.219Z,11.43
2018-06-16T10:15:50.576Z,12.37
2018-06-16T10:18:23.441Z,12.27
2018-06-16T10:20:54.697Z,12.50
2018-06-16T10:23:25.831Z,12.43
2018-06-16T10:25:56.994Z,11.50
2018-06-16T10:28:28.010Z,11.90
2018-06-16T10:30:59.466Z,11.90
2018-06-16T10:33:31.324Z,11.50
2018-06-16T10:36:02.383Z,12.50
2018-06-16T10:38:34.330Z,12.50
2018-06-16T10:41:05.811Z,12.13
2018-06-16T10:43:37.635Z,11.90
2018-06-16T10:46:08.771Z,12.23
2018-06-16T10:48:39.812Z,11.40
2018-06-16T10:51:11.000Z,12.90
2018-06-16T10:53:44.144Z,11.00
2018-06-16T10:56:15.623Z,10.20
2018-06-16T10:58:47.869Z,11.17
2018-06-16T11:01:19.158Z,10.00
2018-06-16T11:03:49.995Z,9.93
2018-06-16T11:06:21.140Z,8.80
2018-06-16T11:08:52.394Z,11.20
2018-06-16T11:11:23.453Z,10.20
2018-06-16T11:13:54.313Z,10.57
2018-06-16T11:16:25.383Z,9.57
2018-06-16T11:18:56.560Z,9.33
2018-06-16T11:21:27.848Z,9.40
2018-06-16T11:24:00.666Z,10.00
2018-06-16T11:26:32.927Z,9.90
2018-06-16T11:29:04.082Z,9.87
2018-06-16T11:31:35.176Z,10.60
2018-06-16T11:34:06.272Z,10.73
2018-06-16T11:36:37.488Z,9.30
2018-06-16T11:39:11.822Z,10.73
2018-06-16T11:41:42.888Z,9.23
2018-06-16T11:44:14.128Z,10.73
2018-06-16T11:46:45.171Z,10.10
2018-06-16T11:49:16.349Z,10.33
2018-06-16T11:51:47.292Z,10.10
2018-06-16T11:54:19.522Z,9.23
2018-06-16T11:56:51.019Z,10.40
2018-06-16T11:59:21.943Z,9.33
2018-06-16T12:01:53.840Z,10.00
2018-06-16T12:04:25.095Z,9.60
2018-06-16T12:06:56.184Z,9.00
2018-06-16T12:09:29.922Z,9.23
2018-06-16T12:12:01.110Z,9.23
2018-06-16T12:14:32.458Z,8.60
2018-06-16T12:17:03.655Z,9.60
2018-06-16T12:19:36.213Z,10.30
2018-06-16T12:22:07.287Z,9.07
2018-06-16T12:24:38.389Z,9.60
2018-06-16T12:27:11.380Z,9.03
2018-06-16T12:29:42.439Z,8.83
2018-06-16T12:32:13.768Z,7.93
2018-06-16T12:34:45.191Z,8.90
2018-06-16T12:37:17.327Z,8.60
2018-06-16T12:39:48.615Z,9.43
2018-06-16T12:42:19.805Z,8.13
2018-06-16T12:44:50.980Z,9.37
2018-06-16T12:47:22.418Z,9.27
2018-06-16T12:49:53.498Z,8.77
2018-06-16T12:52:25.072Z,9.20
2018-06-16T12:54:56.435Z,10.27
2018-06-16T12:57:27.910Z,10.10
2018-06-16T13:00:00.268Z,9.70
2018-06-16T13:02:32.503Z,9.33
2018-06-16T13:05:03.452Z,9.10
2018-06-16T13:07:34.684Z,12.03
2018-06-16T13:10:06.025Z,10.17
2018-06-16T13:12:38.301Z,21.37
2018-06-16T13:15:09.514Z,10.87
2018-06-16T13:17:40.813Z,9.60
2018-06-16T13:20:12.082Z,11.03
2018-06-16T13:22:43.462Z,9.70
2018-06-16T13:25:14.584Z,9.00
2018-06-16T13:27:45.970Z,9.07
2018-06-16T13:30:16.981Z,9.20
2018-06-16T13:32:48.831Z,8.63
2018-06-16T13:35:19.973Z,9.23
2018-06-16T13:37:51.405Z,8.90
2018-06-16T13:40:22.453Z,9.43
2018-06-16T13:42:54.346Z,10.43
2018-06-16T13:45:25.574Z,9.43
2018-06-16T13:47:56.966Z,8.97
2018-06-16T13:50:27.943Z,9.20
2018-06-16T13:53:00.050Z,9.10
2018-06-16T13:55:31.668Z,9.87
2018-06-16T13:58:04.598Z,9.73
2018-06-16T14:00:36.756Z,9.60
2018-06-16T14:03:08.779Z,9.63
2018-06-16T14:05:39.933Z,10.30
2018-06-16T14:08:11.328Z,9.50
2018-06-16T14:10:44.090Z,9.17
2018-06-16T14:13:16.184Z,10.23
2018-06-16T14:15:47.252Z,10.87
2018-06-16T14:18:18.540Z,9.20
2018-06-16T14:20:50.287Z,9.37
2018-06-16T14:23:21.314Z,8.40
2018-06-16T14:25:53.500Z,9.53
2018-06-16T14:28:24.609Z,9.07
2018-06-16T14:30:55.650Z,9.30
2018-06-16T14:33:26.877Z,8.90
2018-06-16T14:35:58.090Z,8.93
2018-06-16T14:38:29.523Z,10.33
2018-06-16T14:41:01.308Z,9.47
2018-06-16T14:43:32.547Z,8.97
2018-06-16T14:46:03.404Z,9.23
2018-06-16T14:48:35.062Z,8.53
2018-06-16T14:51:06.236Z,9.97
2018-06-16T14:53:37.363Z,8.13
2018-06-16T14:56:08.468Z,9.57
2018-06-16T14:58:41.163Z,9.23
2018-06-16T15:01:12.882Z,9.23
2018-06-16T15:03:44.209Z,9.60
2018-06-16T15:06:16.771Z,9.00
2018-06-16T15:08:48.381Z,9.40
2018-06-16T15:11:28.233Z,9.60
2018-06-16T15:13:59.294Z,10.20
2018-06-16T15:16:31.323Z,12.40
2018-06-16T15:19:02.307Z,12.83
2018-06-16T15:21:42.862Z,12.40
2018-06-16T15:24:14.904Z,10.43
2018-06-16T15:26:52.108Z,9.63
2018-06-16T15:29:23.952Z,10.20
2018-06-16T15:31:55.323Z,8.70
2018-06-16T15:34:27.502Z,8.83
2018-06-16T15:36:59.184Z,9.23
2018-06-16T15:39:30.402Z,7.97
2018-06-16T15:42:01.985Z,9.10
2018-06-16T15:44:33.141Z,9.33
2018-06-16T15:47:04.680Z,8.53
2018-06-16T15:49:35.961Z,8.00
2018-06-16T15:52:08.831Z,8.50
2018-06-16T15:54:40.085Z,9.90
2018-06-16T15:57:11.181Z,9.80
2018-06-16T15:59:42.305Z,8.73
2018-06-16T16:05:00.000Z,9.87
2018-06-16T16:07:38.829Z,8.90
2018-06-16T16:10:10.800Z,9.93
2018-06-16T16:12:42.213Z,8.93
2018-06-16T16:15:13.781Z,8.47
2018-06-16T16:17:45.191Z,8.87
2018-06-16T16:20:28.359Z,9.10
2018-06-16T16:22:59.605Z,7.70
2018-06-16T16:28:10.257Z,14.60
2018-06-16T16:30:49.869Z,10.63
2018-06-16T16:33:24.433Z,9.67
2018-06-16T16:35:55.823Z,8.60
2018-06-16T16:38:26.571Z,8.00
2018-06-16T16:40:57.346Z,7.70
2018-06-16T16:43:28.103Z,7.47
2018-06-16T16:45:58.858Z,6.73
2018-06-16T16:48:38.386Z,7.33
2018-06-16T16:51:10.194Z,6.93
2018-06-16T16:53:42.087Z,7.60
2018-06-16T16:56:12.768Z,7.10
2018-06-16T16:58:43.502Z,6.60
2018-06-16T17:01:14.253Z,7.03
2018-06-16T17:03:55.586Z,7.13
2018-06-16T17:06:26.271Z,7.90
2018-06-16T17:08:58.762Z,8.10
2018-06-16T17:11:34.598Z,7.97
2018-06-16T17:14:10.557Z,8.57
2018-06-16T17:16:41.942Z,8.93
2018-06-16T17:19:12.976Z,8.30
2018-06-16T17:21:44.359Z,7.60
2018-06-16T17:24:20.655Z,7.40
2018-06-16T17:26:51.923Z,7.00
2018-06-16T17:29:24.689Z,8.10
2018-06-16T17:31:59.496Z,8.60
2018-06-16T17:34:37.124Z,10.27
2018-06-16T17:37:15.296Z,8.67
2018-06-16T17:39:47.252Z,7.30
2018-06-16T17:42:18.379Z,8.27
2018-06-16T17:44:59.000Z,8.87
2018-06-16T17:47:32.320Z,8.07
2018-06-16T17:50:10.956Z,7.40
2018-06-16T17:52:47.788Z,7.13
2018-06-16T17:55:25.062Z,7.30
2018-06-16T17:57:57.281Z,7.30
2018-06-16T18:00:30.409Z,6.70
2018-06-16T18:03:15.031Z,6.87
2018-06-16T18:05:52.790Z,6.03
2018-06-16T18:08:28.696Z,6.90
2018-06-16T18:11:02.637Z,6.87
2018-06-16T18:13:45.252Z,7.47
2018-06-16T18:16:23.199Z,7.93
2018-06-16T18:18:57.796Z,7.53
2018-06-16T18:21:28.535Z,8.40
2018-06-16T18:24:17.073Z,8.60
2018-06-16T18:26:51.173Z,7.47
2018-06-16T18:29:23.941Z,8.07
2018-06-16T18:32:03.544Z,7.43
2018-06-16T18:34:39.293Z,7.60
2018-06-16T18:37:16.637Z,7.50
2018-06-16T18:39:53.828Z,9.30
2018-06-16T18:42:24.904Z,9.60
2018-06-16T18:44:58.113Z,8.37
2018-06-16T18:47:32.989Z,7.40
2018-06-16T18:50:05.952Z,8.40
2018-06-16T18:52:38.206Z,7.03
2018-06-16T18:55:15.267Z,7.87
2018-06-16T18:57:57.514Z,8.10
2018-06-16T19:00:29.053Z,8.53
2018-06-16T19:03:02.859Z,8.83
2018-06-16T19:05:39.405Z,9.37
2018-06-16T19:08:11.490Z,8.70
2018-06-16T19:10:43.843Z,9.70
2018-06-16T19:13:18.790Z,10.40
2018-06-16T19:16:01.020Z,9.40
2018-06-16T19:18:41.221Z,8.20
2018-06-16T19:21:13.448Z,7.53
2018-06-16T19:23:49.679Z,7.00
2018-06-16T19:26:21.635Z,7.57
2018-06-16T19:28:58.539Z,7.53
2018-06-16T19:31:42.935Z,8.60
2018-06-16T19:34:21.858Z,7.40
2018-06-16T19:36:54.378Z,6.67
2018-06-16T19:39:30.478Z,7.30
2018-06-16T19:42:01.507Z,7.00
2018-06-16T19:44:44.892Z,7.40
2018-06-16T19:47:27.677Z,7.80
2018-06-16T19:49:58.737Z,7.60
2018-06-16T19:52:33.952Z,6.87
2018-06-16T19:55:10.549Z,7.37
2018-06-16T19:57:47.709Z,7.10
2018-06-16T20:00:27.847Z,7.00
2018-06-16T20:02:59.236Z,7.90
2018-06-16T20:05:30.431Z,7.57
2018-06-16T20:08:01.612Z,8.10
2018-06-16T20:13:09.896Z,10.77
2018-06-16T20:15:41.003Z,9.10
2018-06-16T20:18:17.656Z,8.50
2018-06-16T20:20:50.835Z,9.00
2018-06-16T20:23:22.046Z,9.40
2018-06-16T20:25:53.349Z,9.87
2018-06-16T20:28:24.901Z,10.63
2018-06-16T20:31:12.455Z,10.63
2018-06-16T20:33:44.449Z,10.13
2018-06-16T20:36:19.353Z,10.77
2018-06-16T20:38:50.612Z,10.30
2018-06-16T20:41:21.695Z,10.90
2018-06-16T20:46:45.995Z,12.73
2018-06-16T20:49:17.072Z,11.13
2018-06-16T20:51:56.284Z,12.40
2018-06-16T20:54:28.587Z,11.67
2018-06-16T20:57:01.788Z,10.97
2018-06-16T20:59:32.973Z,14.50
2018-06-16T21:02:04.228Z,12.27
2018-06-16T21:04:35.792Z,12.53
2018-06-16T21:07:08.138Z,12.67
2018-06-16T21:09:39.581Z,13.13
2018-06-16T21:12:20.550Z,12.80
2018-06-16T21:14:51.648Z,12.77
2018-06-16T21:17:23.457Z,11.87
2018-06-16T21:19:55.586Z,11.63
2018-06-16T21:22:26.718Z,12.17
2018-06-16T21:24:57.982Z,12.03
2018-06-16T21:27:29.411Z,12.43
2018-06-16T21:30:01.785Z,12.77
2018-06-16T21:32:44.211Z,11.37
2018-06-16T21:35:15.477Z,11.47
2018-06-16T21:37:46.855Z,12.67
2018-06-16T21:40:17.851Z,11.53
2018-06-16T21:42:48.845Z,12.13
2018-06-16T21:45:19.678Z,10.70
2018-06-16T21:47:50.922Z,11.13
2018-06-16T21:50:22.451Z,10.63
2018-06-16T21:52:53.478Z,11.40
2018-06-16T21:55:24.372Z,11.63
2018-06-16T21:57:56.217Z,10.87
2018-06-16T22:00:31.550Z,10.87
2018-06-16T22:03:02.776Z,10.97
2018-06-16T22:05:34.060Z,11.03
2018-06-16T22:08:09.915Z,10.67
2018-06-16T22:10:41.300Z,10.40
2018-06-16T22:13:12.444Z,9.60
2018-06-16T22:15:44.557Z,10.20
2018-06-16T22:18:16.517Z,10.03
2018-06-16T22:20:49.362Z,9.87
2018-06-16T22:23:20.339Z,10.00
2018-06-16T22:25:52.291Z,9.80
2018-06-16T22:28:23.968Z,10.30
2018-06-16T22:30:56.147Z,9.00
2018-06-16T22:33:27.305Z,10.70
2018-06-16T22:35:58.484Z,10.53
2018-06-16T22:38:29.665Z,11.30
2018-06-16T22:41:00.628Z,9.60
2018-06-16T22:43:32.160Z,10.40
2018-06-16T22:46:03.429Z,10.57
2018-06-16T22:48:34.351Z,10.37
2018-06-16T22:51:05.512Z,10.40
2018-06-16T22:53:36.644Z,11.57
2018-06-16T22:56:07.098Z,12.53
2018-06-16T22:58:38.121Z,10.70
2018-06-16T23:01:09.181Z,10.60
2018-06-16T23:03:40.084Z,10.73
2018-06-16T23:06:10.999Z,11.20
2018-06-16T23:08:41.960Z,11.23
2018-06-16T23:11:13.051Z,12.27
2018-06-16T23:13:45.155Z,11.90
2018-06-16T23:16:16.584Z,11.47
2018-06-16T23:18:47.612Z,12.50
2018-06-16T23:21:19.886Z,12.17
2018-06-16T23:23:50.853Z,12.37
2018-06-16T23:26:22.944Z,12.30
2018-06-16T23:28:53.977Z,11.47
2018-06-16T23:31:24.945Z,13.00
2018-06-16T23:33:55.950Z,12.37
2018-06-16T23:36:26.947Z,12.80
2018-06-16T23:38:58.172Z,12.10
2018-06-16T23:41:29.434Z,12.40
2018-06-16T23:44:00.611Z,12.70
2018-06-16T23:46:31.644Z,12.27
2018-06-16T23:49:02.725Z,13.97
2018-06-16T23:51:36.006Z,13.13
2018-06-16T23:54:07.195Z,14.10
2018-06-16T23:56:38.438Z,13.10
2018-06-16T23:59:09.653Z,13.10
